Time;durP1;ratioP1;P1;durP2;ratioP2;P2;SDS_P1;SDS_P2;PMS_P1;PMS_P2;Temp;Humidity;BMP_temperature;BMP_pressure;BME280_temperature;BME280_humidity;BME280_pressure;Samples;Min_cycle;Max_cycle;Signal;HPM_P1;HPM_P2
2021/06/27 00:01:39;;;;;;;5.47;2.47;;;;;;;;;;5072934;28;20164;-72
2021/06/27 00:04:04;;;;;;;6.97;2.47;;;;;;;;;;5072512;28;20601;-72
2021/06/27 00:06:30;;;;;;;7.03;2.90;;;;;;;;;;5072510;28;20168;-73
2021/06/27 00:08:55;;;;;;;9.20;4.40;;;;;;;;;;5072581;28;20250;-72
2021/06/27 00:11:23;;;;;;;9.13;2.53;;;;;;;;;;5072278;28;20195;-72
2021/06/27 00:13:50;;;;;;;6.27;2.33;;;;;;;;;;5072223;28;20187;-71
2021/06/27 00:16:15;;;;;;;8.23;3.00;;;;;;;;;;5072156;28;20423;-71
2021/06/27 00:18:41;;;;;;;14.77;3.50;;;;;;;;;;5074508;28;20430;-71
2021/06/27 00:21:08;;;;;;;13.63;3.37;;;;;;;;;;5053078;28;20212;-72
2021/06/27 00:23:34;;;;;;;14.33;4.70;;;;;;;;;;5072067;28;20264;-72
2021/06/27 00:26:00;;;;;;;5.93;3.10;;;;;;;;;;5070750;28;20399;-72
2021/06/27 00:28:26;;;;;;;7.90;3.20;;;;;;;;;;5070870;28;20445;-72
2021/06/27 00:30:52;;;;;;;9.30;3.30;;;;;;;;;;5071281;28;20172;-72
2021/06/27 00:33:18;;;;;;;7.10;3.10;;;;;;;;;;5070878;28;20606;-73
2021/06/27 00:35:44;;;;;;;7.50;3.53;;;;;;;;;;5073902;28;20482;-72
2021/06/27 00:38:09;;;;;;;12.00;3.73;;;;;;;;;;5071298;28;20399;-73
2021/06/27 00:40:35;;;;;;;6.47;2.90;;;;;;;;;;5070059;28;20188;-72
2021/06/27 00:43:00;;;;;;;8.07;3.27;;;;;;;;;;5070878;28;20152;-73
2021/06/27 00:45:27;;;;;;;7.20;2.70;;;;;;;;;;5070911;28;20156;-72
2021/06/27 00:47:52;;;;;;;7.83;2.70;;;;;;;;;;5066184;28;20163;-72
2021/06/27 00:50:19;;;;;;;8.47;3.80;;;;;;;;;;5070381;28;20410;-71
2021/06/27 00:52:44;;;;;;;8.83;3.13;;;;;;;;;;5070237;28;20524;-72
2021/06/27 00:55:10;;;;;;;5.20;2.63;;;;;;;;;;5070343;28;20912;-72
2021/06/27 00:57:36;;;;;;;6.13;2.90;;;;;;;;;;5069494;28;20171;-72
2021/06/27 01:00:07;;;;;;;6.17;2.90;;;;;;;;;;5070587;28;20208;-72
2021/06/27 01:02:32;;;;;;;10.33;3.07;;;;;;;;;;5070711;28;20398;-72
2021/06/27 01:04:57;;;;;;;7.27;3.93;;;;;;;;;;5068941;28;20422;-72
2021/06/27 01:07:23;;;;;;;5.47;2.20;;;;;;;;;;5070176;28;20199;-72
2021/06/27 01:09:48;;;;;;;8.80;2.80;;;;;;;;;;5070366;28;20149;-72
2021/06/27 01:12:13;;;;;;;6.00;2.40;;;;;;;;;;5070256;28;20164;-72
2021/06/27 01:14:39;;;;;;;5.90;3.23;;;;;;;;;;5069938;28;20207;-72
2021/06/27 01:17:04;;;;;;;8.30;2.83;;;;;;;;;;5070214;28;20215;-72
2021/06/27 01:19:33;;;;;;;5.77;2.63;;;;;;;;;;5069728;28;20164;-72
2021/06/27 01:21:59;;;;;;;7.87;3.43;;;;;;;;;;5068450;28;20510;-72
2021/06/27 01:24:26;;;;;;;6.87;3.20;;;;;;;;;;5070194;28;20427;-73
2021/06/27 01:26:51;;;;;;;9.20;4.13;;;;;;;;;;5069583;28;20770;-73
2021/06/27 01:29:17;;;;;;;15.07;3.80;;;;;;;;;;5069839;28;20163;-72
2021/06/27 01:31:44;;;;;;;12.63;4.40;;;;;;;;;;5069858;28;20196;-72
2021/06/27 01:34:09;;;;;;;12.60;4.13;;;;;;;;;;5068904;28;20190;-73
2021/06/27 01:36:35;;;;;;;9.63;3.63;;;;;;;;;;5069574;28;20802;-72
2021/06/27 01:39:00;;;;;;;11.50;3.90;;;;;;;;;;5069761;28;20253;-72
2021/06/27 01:41:25;;;;;;;10.10;3.40;;;;;;;;;;5065480;28;20211;-72
2021/06/27 01:43:51;;;;;;;10.37;3.97;;;;;;;;;;5069324;28;20611;-71
2021/06/27 01:46:18;;;;;;;8.53;3.80;;;;;;;;;;5069436;28;20184;-73
2021/06/27 01:48:43;;;;;;;8.00;3.03;;;;;;;;;;5069857;28;20172;-72
2021/06/27 01:51:08;;;;;;;10.40;3.47;;;;;;;;;;5070057;28;20426;-72
2021/06/27 01:53:35;;;;;;;7.83;3.90;;;;;;;;;;5069777;28;20152;-72
2021/06/27 01:56:09;;;;;;;10.07;3.73;;;;;;;;;;5069643;28;20172;-71
2021/06/27 01:58:37;;;;;;;12.37;4.83;;;;;;;;;;5069405;28;20822;-72
2021/06/27 02:01:04;;;;;;;12.60;3.67;;;;;;;;;;5069579;28;20458;-72
2021/06/27 02:03:30;;;;;;;7.90;3.60;;;;;;;;;;5069090;28;20395;-72
2021/06/27 02:05:55;;;;;;;13.17;3.50;;;;;;;;;;5069412;28;20876;-72
2021/06/27 02:08:20;;;;;;;8.67;4.20;;;;;;;;;;5069841;28;20169;-73
2021/06/27 02:10:46;;;;;;;11.20;3.63;;;;;;;;;;5068524;28;20179;-71
2021/06/27 02:13:11;;;;;;;7.93;3.77;;;;;;;;;;5069512;28;20170;-72
2021/06/27 02:15:36;;;;;;;8.23;2.60;;;;;;;;;;5069145;28;20220;-72
2021/06/27 02:18:20;;;;;;;9.23;4.00;;;;;;;;;;5068728;28;20526;-73
2021/06/27 02:20:48;;;;;;;7.83;3.33;;;;;;;;;;5068832;28;20203;-73
2021/06/27 02:23:13;;;;;;;7.53;3.33;;;;;;;;;;5069194;28;20911;-73
2021/06/27 02:25:38;;;;;;;10.77;3.70;;;;;;;;;;5069160;28;20426;-73
2021/06/27 02:28:04;;;;;;;9.07;4.10;;;;;;;;;;5069000;28;20672;-73
2021/06/27 02:30:29;;;;;;;8.20;3.80;;;;;;;;;;5069350;28;20164;-73
2021/06/27 02:32:54;;;;;;;7.60;3.20;;;;;;;;;;5069721;28;20152;-72
2021/06/27 02:35:20;;;;;;;6.83;3.40;;;;;;;;;;5068761;28;20172;-72
2021/06/27 02:37:45;;;;;;;12.40;4.37;;;;;;;;;;5069249;28;20168;-72
2021/06/27 02:40:11;;;;;;;9.67;3.80;;;;;;;;;;5068822;28;20291;-72
2021/06/27 02:42:37;;;;;;;8.90;4.20;;;;;;;;;;5069286;28;20649;-72
2021/06/27 02:45:04;;;;;;;9.10;3.53;;;;;;;;;;5069270;28;20415;-73
2021/06/27 02:47:29;;;;;;;6.67;3.40;;;;;;;;;;5070630;28;20171;-73
2021/06/27 02:49:55;;;;;;;8.83;3.23;;;;;;;;;;5072705;28;20406;-73
2021/06/27 02:52:21;;;;;;;8.33;3.40;;;;;;;;;;5073298;28;20702;-73
2021/06/27 02:54:46;;;;;;;9.97;4.10;;;;;;;;;;5072253;28;20164;-71
2021/06/27 02:57:12;;;;;;;15.70;4.30;;;;;;;;;;5072926;28;20911;-73
2021/06/27 02:59:37;;;;;;;15.80;5.20;;;;;;;;;;5072990;28;20693;-72
2021/06/27 03:02:02;;;;;;;6.57;3.70;;;;;;;;;;5072575;28;20164;-72
2021/06/27 03:04:28;;;;;;;8.50;3.93;;;;;;;;;;5054309;28;20161;-72
2021/06/27 03:06:53;;;;;;;11.23;4.47;;;;;;;;;;5072648;28;20178;-73
2021/06/27 03:09:18;;;;;;;7.00;3.40;;;;;;;;;;5072437;28;20623;-73
2021/06/27 03:11:44;;;;;;;10.00;3.60;;;;;;;;;;5072279;28;20169;-73
2021/06/27 03:14:10;;;;;;;8.23;3.80;;;;;;;;;;5072298;28;20208;-73
2021/06/27 03:16:35;;;;;;;12.13;3.87;;;;;;;;;;5073041;28;20934;-73
2021/06/27 03:19:00;;;;;;;8.97;4.37;;;;;;;;;;5072141;28;20611;-72
2021/06/27 03:21:25;;;;;;;9.40;3.17;;;;;;;;;;5072685;28;20192;-73
2021/06/27 03:23:51;;;;;;;8.23;3.10;;;;;;;;;;5072448;28;20186;-74
2021/06/27 03:26:16;;;;;;;8.20;3.20;;;;;;;;;;5072452;28;20161;-74
2021/06/27 03:28:46;;;;;;;10.50;3.63;;;;;;;;;;5074353;28;20199;-75
2021/06/27 03:31:11;;;;;;;5.63;3.50;;;;;;;;;;5074044;28;20190;-74
2021/06/27 03:33:37;;;;;;;10.10;3.50;;;;;;;;;;5073677;28;20398;-74
2021/06/27 03:36:02;;;;;;;8.80;3.60;;;;;;;;;;5073239;28;20176;-74
2021/06/27 03:40:59;;;;;;;8.87;3.40;;;;;;;;;;5073476;28;20188;-74
2021/06/27 03:43:24;;;;;;;10.13;3.30;;;;;;;;;;5059919;28;20391;-74
2021/06/27 03:45:49;;;;;;;7.73;3.40;;;;;;;;;;5073663;28;20175;-74
2021/06/27 03:48:15;;;;;;;6.87;3.60;;;;;;;;;;5073680;28;20159;-74
2021/06/27 03:50:40;;;;;;;9.77;3.67;;;;;;;;;;5073281;28;20179;-74
2021/06/27 03:53:05;;;;;;;11.53;4.37;;;;;;;;;;5073162;28;20203;-72
2021/06/27 03:55:31;;;;;;;10.70;4.50;;;;;;;;;;5073033;28;20179;-73
2021/06/27 03:57:56;;;;;;;8.53;4.63;;;;;;;;;;5072658;28;20164;-73
2021/06/27 04:00:22;;;;;;;7.33;3.70;;;;;;;;;;5072892;28;20250;-73
2021/06/27 04:02:47;;;;;;;10.90;3.73;;;;;;;;;;5073236;28;20160;-74
2021/06/27 04:05:13;;;;;;;7.37;3.43;;;;;;;;;;5073508;28;20179;-74
2021/06/27 04:07:39;;;;;;;10.73;4.00;;;;;;;;;;5073376;28;20574;-73
2021/06/27 04:10:04;;;;;;;7.57;3.90;;;;;;;;;;5072753;28;20691;-72
2021/06/27 04:12:29;;;;;;;9.00;4.00;;;;;;;;;;5073182;28;20251;-73
2021/06/27 04:14:55;;;;;;;9.77;3.90;;;;;;;;;;5073194;28;20246;-75
2021/06/27 04:17:22;;;;;;;14.00;4.63;;;;;;;;;;5072552;28;20184;-73
2021/06/27 04:19:48;;;;;;;13.30;6.77;;;;;;;;;;5072834;28;20188;-74
2021/06/27 04:22:13;;;;;;;13.10;5.77;;;;;;;;;;5073053;28;20468;-73
2021/06/27 04:24:38;;;;;;;10.20;5.40;;;;;;;;;;5073187;28;20182;-74
2021/06/27 04:27:04;;;;;;;10.07;6.03;;;;;;;;;;5072439;28;20176;-73
2021/06/27 04:29:29;;;;;;;10.97;5.53;;;;;;;;;;5063746;28;20202;-72
2021/06/27 04:31:55;;;;;;;14.33;5.50;;;;;;;;;;5068055;28;20191;-73
2021/06/27 04:34:20;;;;;;;18.80;6.87;;;;;;;;;;5071951;28;20243;-74
2021/06/27 04:36:46;;;;;;;9.00;5.40;;;;;;;;;;5073089;28;20641;-75
2021/06/27 04:39:14;;;;;;;9.70;5.40;;;;;;;;;;5072230;28;20210;-74
2021/06/27 04:41:39;;;;;;;9.60;6.27;;;;;;;;;;5072558;28;20462;-74
2021/06/27 04:44:05;;;;;;;11.13;6.63;;;;;;;;;;5072538;28;20454;-74
2021/06/27 04:46:31;;;;;;;11.07;7.10;;;;;;;;;;5072618;28;20172;-74
2021/06/27 04:48:57;;;;;;;13.00;7.03;;;;;;;;;;5071948;28;20547;-74
2021/06/27 04:51:22;;;;;;;9.80;6.20;;;;;;;;;;5072700;28;20410;-74
2021/06/27 04:53:48;;;;;;;9.80;5.87;;;;;;;;;;5072252;28;20802;-72
2021/06/27 04:56:13;;;;;;;13.43;6.60;;;;;;;;;;5071367;28;20175;-74
2021/06/27 04:58:38;;;;;;;17.87;7.17;;;;;;;;;;5054453;28;20164;-72
2021/06/27 05:01:04;;;;;;;20.13;7.20;;;;;;;;;;5071655;28;20686;-73
2021/06/27 05:03:29;;;;;;;9.97;6.43;;;;;;;;;;5071667;28;20164;-73
2021/06/27 05:05:54;;;;;;;11.37;6.83;;;;;;;;;;5072095;28;20183;-74
2021/06/27 05:08:20;;;;;;;8.57;5.83;;;;;;;;;;5072030;28;20165;-75
2021/06/27 05:10:45;;;;;;;12.70;6.80;;;;;;;;;;5071547;28;20164;-74
2021/06/27 05:13:10;;;;;;;10.97;6.17;;;;;;;;;;5071363;28;20521;-73
2021/06/27 05:15:36;;;;;;;16.17;7.83;;;;;;;;;;5071520;28;20228;-74
2021/06/27 05:18:01;;;;;;;10.03;6.40;;;;;;;;;;5072286;28;20168;-74
2021/06/27 05:20:26;;;;;;;11.50;6.50;;;;;;;;;;5070912;28;20223;-73
2021/06/27 05:22:52;;;;;;;10.60;6.23;;;;;;;;;;5071969;28;20627;-74
2021/06/27 05:25:17;;;;;;;11.97;7.67;;;;;;;;;;5071662;28;20601;-74
2021/06/27 05:27:42;;;;;;;10.50;6.70;;;;;;;;;;5071777;28;20164;-72
2021/06/27 05:30:08;;;;;;;12.73;7.57;;;;;;;;;;5071414;28;20206;-73
2021/06/27 05:32:33;;;;;;;16.77;7.80;;;;;;;;;;5071126;28;20217;-73
2021/06/27 05:34:59;;;;;;;12.30;7.87;;;;;;;;;;5070946;28;20165;-74
2021/06/27 05:37:24;;;;;;;17.00;8.30;;;;;;;;;;5071043;28;20171;-73
2021/06/27 05:39:49;;;;;;;13.63;7.83;;;;;;;;;;5071789;28;20198;-74
2021/06/27 05:42:15;;;;;;;13.03;7.90;;;;;;;;;;5070967;28;20588;-73
2021/06/27 05:44:41;;;;;;;13.83;8.27;;;;;;;;;;5070688;28;20631;-72
2021/06/27 05:47:06;;;;;;;13.27;7.30;;;;;;;;;;5071823;28;20406;-73
2021/06/27 05:49:32;;;;;;;13.80;6.93;;;;;;;;;;5071139;28;20168;-73
2021/06/27 05:51:57;;;;;;;20.23;7.37;;;;;;;;;;5071480;28;20165;-74
2021/06/27 05:54:22;;;;;;;13.17;7.30;;;;;;;;;;5071502;28;20265;-73
2021/06/27 05:56:48;;;;;;;14.43;7.13;;;;;;;;;;5071209;28;20194;-73
2021/06/27 05:59:13;;;;;;;12.83;6.83;;;;;;;;;;5071294;28;20262;-73
2021/06/27 06:01:38;;;;;;;11.30;6.93;;;;;;;;;;5070664;28;20632;-73
2021/06/27 06:04:03;;;;;;;16.93;7.03;;;;;;;;;;5070384;28;20198;-74
2021/06/27 06:06:29;;;;;;;11.47;7.20;;;;;;;;;;5052317;28;20279;-74
2021/06/27 06:08:54;;;;;;;16.67;8.10;;;;;;;;;;5071071;28;20246;-74
2021/06/27 06:11:22;;;;;;;14.47;7.30;;;;;;;;;;5071218;28;20215;-74
2021/06/27 06:13:47;;;;;;;11.13;7.10;;;;;;;;;;5070274;28;20164;-74
2021/06/27 06:16:14;;;;;;;19.43;8.07;;;;;;;;;;5071107;28;20525;-73
2021/06/27 06:18:42;;;;;;;10.60;6.40;;;;;;;;;;5069806;28;20603;-74
2021/06/27 06:21:07;;;;;;;13.60;7.33;;;;;;;;;;5072206;28;20461;-74
2021/06/27 06:23:33;;;;;;;10.30;6.33;;;;;;;;;;5076930;28;20410;-73
2021/06/27 06:25:58;;;;;;;12.13;8.00;;;;;;;;;;5076243;28;20249;-73
2021/06/27 06:28:23;;;;;;;13.43;7.60;;;;;;;;;;5076921;28;20164;-72
2021/06/27 06:30:49;;;;;;;16.70;7.07;;;;;;;;;;5076811;28;20167;-73
2021/06/27 06:33:14;;;;;;;13.77;7.93;;;;;;;;;;5077082;28;20163;-73
2021/06/27 06:35:40;;;;;;;11.40;8.10;;;;;;;;;;5077140;28;20175;-73
2021/06/27 06:38:05;;;;;;;9.50;6.83;;;;;;;;;;5076893;28;20556;-73
2021/06/27 06:40:31;;;;;;;10.30;7.50;;;;;;;;;;5077350;28;20705;-72
2021/06/27 06:42:56;;;;;;;10.80;6.90;;;;;;;;;;5077255;28;20156;-72
2021/06/27 06:45:25;;;;;;;12.30;7.70;;;;;;;;;;5077848;28;20258;-73
2021/06/27 06:47:50;;;;;;;12.10;6.77;;;;;;;;;;5076892;28;20191;-72
2021/06/27 06:50:16;;;;;;;12.87;7.50;;;;;;;;;;5076935;28;20505;-72
2021/06/27 06:52:42;;;;;;;12.50;7.57;;;;;;;;;;5077592;28;20160;-73
2021/06/27 06:55:07;;;;;;;11.57;7.37;;;;;;;;;;5077246;28;20171;-73
2021/06/27 06:57:32;;;;;;;11.13;7.33;;;;;;;;;;5077432;28;20665;-72
2021/06/27 06:59:58;;;;;;;11.90;7.10;;;;;;;;;;5076544;28;20188;-72
2021/06/27 07:02:23;;;;;;;13.60;6.83;;;;;;;;;;5077020;28;20195;-73
2021/06/27 07:04:48;;;;;;;12.53;7.60;;;;;;;;;;5075818;28;20161;-73
2021/06/27 07:07:14;;;;;;;10.03;6.77;;;;;;;;;;5077385;28;20252;-73
2021/06/27 07:09:39;;;;;;;11.33;7.87;;;;;;;;;;5076996;28;20251;-73
2021/06/27 07:12:05;;;;;;;12.77;6.80;;;;;;;;;;5076214;28;20245;-74
2021/06/27 07:14:30;;;;;;;12.23;7.10;;;;;;;;;;5076414;28;20585;-75
2021/06/27 07:16:55;;;;;;;10.60;6.80;;;;;;;;;;5077435;28;20160;-72
2021/06/27 07:19:22;;;;;;;9.30;6.40;;;;;;;;;;5076821;28;20650;-75
2021/06/27 07:21:47;;;;;;;11.10;7.00;;;;;;;;;;5077054;28;20287;-73
2021/06/27 07:24:12;;;;;;;10.83;7.00;;;;;;;;;;5077311;28;20406;-74
2021/06/27 07:26:38;;;;;;;8.03;5.70;;;;;;;;;;5076405;28;20172;-74
2021/06/27 07:29:04;;;;;;;10.37;6.30;;;;;;;;;;5076844;28;20164;-75
2021/06/27 07:31:29;;;;;;;11.77;7.07;;;;;;;;;;5075689;28;20164;-79
2021/06/27 07:33:54;;;;;;;11.70;7.30;;;;;;;;;;5073609;28;20156;-75
2021/06/27 07:36:19;;;;;;;11.13;7.07;;;;;;;;;;5073458;28;20168;-74
2021/06/27 07:38:45;;;;;;;10.30;6.20;;;;;;;;;;5073752;28;20172;-76
2021/06/27 07:41:12;;;;;;;11.00;6.60;;;;;;;;;;5073709;28;20241;-76
2021/06/27 07:43:37;;;;;;;10.20;6.00;;;;;;;;;;5073659;28;20156;-76
2021/06/27 07:46:02;;;;;;;13.50;7.03;;;;;;;;;;5072161;28;20433;-76
2021/06/27 07:48:28;;;;;;;10.63;6.53;;;;;;;;;;5073450;28;20638;-75
2021/06/27 07:50:53;;;;;;;11.03;6.60;;;;;;;;;;5073133;28;20168;-75
2021/06/27 07:53:18;;;;;;;11.73;5.70;;;;;;;;;;5073513;28;20156;-74
2021/06/27 07:55:44;;;;;;;9.97;6.90;;;;;;;;;;5073219;28;20542;-75
2021/06/27 07:58:09;;;;;;;10.10;6.33;;;;;;;;;;5072962;28;20161;-75
2021/06/27 08:00:34;;;;;;;8.50;6.00;;;;;;;;;;5072999;28;20196;-75
2021/06/27 08:03:00;;;;;;;10.80;6.97;;;;;;;;;;5072953;28;20211;-74
2021/06/27 08:05:25;;;;;;;13.70;7.80;;;;;;;;;;5071938;28;20210;-76
2021/06/27 08:07:51;;;;;;;9.30;7.03;;;;;;;;;;5072712;28;20210;-77
2021/06/27 08:10:16;;;;;;;10.47;6.13;;;;;;;;;;5072939;28;20176;-75
2021/06/27 08:12:42;;;;;;;10.60;5.80;;;;;;;;;;5072388;28;20168;-75
2021/06/27 08:15:08;;;;;;;12.53;7.40;;;;;;;;;;5072124;28;20566;-75
2021/06/27 08:17:34;;;;;;;9.47;6.40;;;;;;;;;;5072361;28;20168;-72
2021/06/27 08:19:59;;;;;;;10.23;6.33;;;;;;;;;;5072732;28;20449;-73
2021/06/27 08:22:24;;;;;;;7.93;5.60;;;;;;;;;;5073060;28;20580;-73
2021/06/27 08:24:49;;;;;;;10.33;6.83;;;;;;;;;;5073768;28;20161;-73
2021/06/27 08:27:16;;;;;;;11.40;6.70;;;;;;;;;;5075510;28;20168;-72
2021/06/27 08:29:41;;;;;;;12.47;6.70;;;;;;;;;;5072752;28;20156;-72
2021/06/27 08:32:07;;;;;;;11.63;6.50;;;;;;;;;;5071689;28;20449;-75
2021/06/27 08:34:32;;;;;;;12.00;6.90;;;;;;;;;;5072251;28;20186;-76
2021/06/27 08:36:57;;;;;;;10.60;7.10;;;;;;;;;;5072816;28;20168;-76
2021/06/27 08:39:23;;;;;;;9.90;5.60;;;;;;;;;;5072285;28;20175;-73
2021/06/27 08:41:48;;;;;;;11.23;6.53;;;;;;;;;;5071353;28;20188;-75
2021/06/27 08:44:13;;;;;;;8.07;6.33;;;;;;;;;;5071344;28;20654;-74
2021/06/27 08:46:43;;;;;;;10.83;6.03;;;;;;;;;;5071939;28;20167;-73
2021/06/27 08:49:09;;;;;;;13.00;10.33;;;;;;;;;;5072090;28;20148;-74
2021/06/27 08:51:39;;;;;;;12.80;6.73;;;;;;;;;;5071778;28;20426;-74
2021/06/27 08:54:05;;;;;;;12.77;10.37;;;;;;;;;;5071781;28;20491;-76
2021/06/27 08:56:30;;;;;;;14.67;9.00;;;;;;;;;;5070610;28;20800;-73
2021/06/27 08:58:55;;;;;;;14.43;8.33;;;;;;;;;;5050878;28;20638;-74
2021/06/27 09:01:21;;;;;;;19.53;8.10;;;;;;;;;;5072076;28;20195;-72
2021/06/27 09:03:47;;;;;;;10.10;7.87;;;;;;;;;;5071319;28;20157;-74
2021/06/27 09:06:23;;;;;;;11.83;8.30;;;;;;;;;;5071658;28;20164;-76
2021/06/27 09:09:07;;;;;;;12.30;9.00;;;;;;;;;;5071862;28;20390;-74
2021/06/27 09:11:33;;;;;;;11.33;7.80;;;;;;;;;;5071902;28;20509;-73
2021/06/27 09:13:58;;;;;;;11.60;8.43;;;;;;;;;;5071292;28;21004;-72
2021/06/27 09:16:23;;;;;;;10.57;8.00;;;;;;;;;;5071617;28;20176;-75
2021/06/27 09:18:52;;;;;;;21.60;9.20;;;;;;;;;;5071505;28;20152;-77
2021/06/27 09:21:19;;;;;;;15.80;9.77;;;;;;;;;;5070852;28;20208;-76
2021/06/27 09:23:47;;;;;;;15.83;8.53;;;;;;;;;;5070843;28;20489;-74
2021/06/27 09:26:23;;;;;;;10.07;7.93;;;;;;;;;;5070946;28;20410;-75
2021/06/27 09:28:49;;;;;;;9.47;7.40;;;;;;;;;;5071091;28;20977;-74
2021/06/27 09:31:33;;;;;;;13.80;7.87;;;;;;;;;;5071207;28;20399;-73
2021/06/27 09:33:59;;;;;;;13.30;8.10;;;;;;;;;;5071194;28;21001;-75
2021/06/27 09:36:25;;;;;;;9.67;7.90;;;;;;;;;;5071078;28;20453;-76
2021/06/27 09:38:52;;;;;;;12.90;8.43;;;;;;;;;;5071213;28;20406;-73
2021/06/27 09:41:30;;;;;;;14.53;9.27;;;;;;;;;;5071177;28;20196;-74
2021/06/27 09:43:55;;;;;;;11.13;7.70;;;;;;;;;;5070824;28;20404;-73
2021/06/27 09:46:32;;;;;;;14.03;8.90;;;;;;;;;;5070577;28;20390;-74
2021/06/27 09:48:59;;;;;;;12.00;8.30;;;;;;;;;;5069771;28;20177;-74
2021/06/27 09:51:26;;;;;;;11.17;8.07;;;;;;;;;;5069938;28;20908;-72
2021/06/27 09:53:51;;;;;;;11.30;7.87;;;;;;;;;;5070681;28;20610;-73
2021/06/27 09:56:17;;;;;;;11.40;7.50;;;;;;;;;;5069661;28;20968;-74
2021/06/27 09:58:56;;;;;;;11.20;8.57;;;;;;;;;;5069715;28;20172;-73
2021/06/27 10:01:23;;;;;;;17.20;8.40;;;;;;;;;;5070537;28;20282;-73
2021/06/27 10:03:54;;;;;;;12.23;7.93;;;;;;;;;;5052546;28;20417;-74
2021/06/27 10:06:19;;;;;;;11.90;8.83;;;;;;;;;;5070174;28;20418;-73
2021/06/27 10:08:45;;;;;;;12.50;7.77;;;;;;;;;;5070701;28;20451;-74
2021/06/27 10:11:13;;;;;;;13.73;8.77;;;;;;;;;;5070312;28;20232;-74
2021/06/27 10:13:42;;;;;;;11.93;8.80;;;;;;;;;;5070791;28;20171;-74
2021/06/27 10:16:10;;;;;;;10.93;7.53;;;;;;;;;;5070232;28;20454;-75
2021/06/27 10:18:35;;;;;;;13.00;8.13;;;;;;;;;;5070937;28;20390;-73
2021/06/27 10:21:01;;;;;;;14.30;9.23;;;;;;;;;;5070492;28;20818;-72
2021/06/27 10:23:27;;;;;;;12.30;8.73;;;;;;;;;;5070263;28;20627;-73
2021/06/27 10:25:52;;;;;;;11.33;7.30;;;;;;;;;;5070239;28;20156;-72
2021/06/27 10:28:18;;;;;;;11.73;8.27;;;;;;;;;;5071132;28;20701;-73
2021/06/27 10:30:44;;;;;;;15.60;7.70;;;;;;;;;;5070422;28;20175;-73
2021/06/27 10:33:09;;;;;;;10.63;7.80;;;;;;;;;;5070677;28;20161;-71
2021/06/27 10:35:35;;;;;;;12.43;7.90;;;;;;;;;;5073628;28;20622;-74
2021/06/27 10:38:03;;;;;;;11.57;8.03;;;;;;;;;;5081433;28;20697;-74
2021/06/27 10:40:47;;;;;;;13.57;9.27;;;;;;;;;;5069726;28;20450;-75
2021/06/27 10:43:12;;;;;;;13.23;8.43;;;;;;;;;;5070766;28;20862;-78
2021/06/27 10:45:40;;;;;;;12.03;8.07;;;;;;;;;;5070218;28;20432;-76
2021/06/27 10:48:24;;;;;;;9.77;8.17;;;;;;;;;;5070042;28;20540;-74
2021/06/27 10:50:52;;;;;;;10.13;8.00;;;;;;;;;;5070382;28;20411;-74
2021/06/27 10:53:18;;;;;;;13.63;7.50;;;;;;;;;;5069921;28;20402;-76
2021/06/27 10:55:44;;;;;;;12.33;7.80;;;;;;;;;;5052042;28;21028;-74
2021/06/27 10:58:11;;;;;;;10.70;7.10;;;;;;;;;;5068955;28;20413;-72
2021/06/27 11:00:59;;;;;;;12.97;9.17;;;;;;;;;;5069352;28;20453;-73
2021/06/27 11:03:34;;;;;;;11.37;8.13;;;;;;;;;;5070178;28;20927;-72
2021/06/27 11:06:01;;;;;;;11.33;7.50;;;;;;;;;;5070314;28;20879;-73
2021/06/27 11:08:37;;;;;;;13.50;8.40;;;;;;;;;;5071186;28;20812;-74
2021/06/27 11:11:03;;;;;;;11.80;8.10;;;;;;;;;;5074065;28;20827;-74
2021/06/27 11:13:29;;;;;;;15.97;8.90;;;;;;;;;;5073739;28;20410;-73
2021/06/27 11:15:55;;;;;;;12.27;8.10;;;;;;;;;;5073691;28;20495;-74
2021/06/27 11:18:33;;;;;;;10.27;8.50;;;;;;;;;;5073952;28;20417;-72
2021/06/27 11:20:59;;;;;;;14.27;8.87;;;;;;;;;;5073846;28;20685;-73
2021/06/27 11:23:43;;;;;;;13.43;9.27;;;;;;;;;;5073705;28;20904;-74
2021/06/27 11:26:08;;;;;;;18.27;9.03;;;;;;;;;;5074003;28;20573;-74
2021/06/27 11:28:35;;;;;;;18.73;9.23;;;;;;;;;;5073435;28;20452;-73
2021/06/27 11:31:19;;;;;;;11.87;9.60;;;;;;;;;;5072972;28;20413;-74
2021/06/27 11:33:44;;;;;;;13.37;9.03;;;;;;;;;;5073205;28;20395;-74
2021/06/27 11:36:25;;;;;;;10.13;8.00;;;;;;;;;;5073139;28;20433;-73
2021/06/27 11:38:51;;;;;;;13.60;9.73;;;;;;;;;;5073543;28;20170;-74
2021/06/27 11:41:22;;;;;;;13.40;8.50;;;;;;;;;;5073165;28;20450;-73
2021/06/27 11:43:52;;;;;;;10.83;8.33;;;;;;;;;;5072943;28;20168;-74
2021/06/27 11:46:25;;;;;;;14.13;8.43;;;;;;;;;;5073358;28;20465;-74
2021/06/27 11:48:51;;;;;;;14.80;9.20;;;;;;;;;;5073372;28;20391;-74
2021/06/27 11:51:16;;;;;;;14.20;9.33;;;;;;;;;;5073130;28;20403;-74
2021/06/27 11:53:42;;;;;;;14.10;9.07;;;;;;;;;;5073506;28;20156;-74
2021/06/27 11:56:12;;;;;;;11.80;8.60;;;;;;;;;;5073459;28;20172;-77
2021/06/27 11:58:38;;;;;;;11.70;8.87;;;;;;;;;;5072899;28;20161;-74
2021/06/27 12:01:04;;;;;;;11.60;7.90;;;;;;;;;;5073091;28;20453;-74
2021/06/27 12:03:29;;;;;;;12.17;9.93;;;;;;;;;;5072764;28;20148;-73
2021/06/27 12:05:57;;;;;;;15.50;9.90;;;;;;;;;;5073029;28;20507;-73
2021/06/27 12:08:23;;;;;;;16.70;9.00;;;;;;;;;;5073142;28;20169;-72
2021/06/27 12:10:51;;;;;;;12.40;8.33;;;;;;;;;;5073364;28;20419;-74
2021/06/27 12:13:16;;;;;;;14.07;9.73;;;;;;;;;;5054649;28;20958;-73
2021/06/27 12:15:45;;;;;;;12.90;8.67;;;;;;;;;;5072564;28;20487;-74
2021/06/27 12:18:15;;;;;;;10.90;8.60;;;;;;;;;;5072335;28;20156;-73
2021/06/27 12:20:47;;;;;;;15.10;10.27;;;;;;;;;;5072010;28;20566;-75
2021/06/27 12:23:17;;;;;;;13.13;9.50;;;;;;;;;;5072457;28;20409;-73
2021/06/27 12:25:42;;;;;;;13.40;8.43;;;;;;;;;;5072285;28;20395;-74
2021/06/27 12:28:09;;;;;;;12.40;8.90;;;;;;;;;;5071568;28;20456;-73
2021/06/27 12:30:39;;;;;;;10.50;8.67;;;;;;;;;;5072443;28;20180;-74
2021/06/27 12:33:08;;;;;;;11.40;9.00;;;;;;;;;;5072353;28;20399;-74
2021/06/27 12:35:34;;;;;;;13.30;8.13;;;;;;;;;;5072728;28;20418;-73
2021/06/27 12:38:00;;;;;;;13.00;8.70;;;;;;;;;;5072145;28;20399;-76
2021/06/27 12:40:26;;;;;;;12.53;9.20;;;;;;;;;;5071755;28;20533;-73
2021/06/27 12:42:51;;;;;;;13.63;10.33;;;;;;;;;;5072021;28;20538;-74
2021/06/27 12:45:21;;;;;;;13.00;9.20;;;;;;;;;;5072106;28;20171;-77
2021/06/27 12:47:47;;;;;;;14.80;9.57;;;;;;;;;;5072163;28;20271;-74
2021/06/27 12:50:12;;;;;;;15.83;9.67;;;;;;;;;;5072076;28;20840;-73
2021/06/27 12:52:39;;;;;;;14.33;9.47;;;;;;;;;;5072511;28;20395;-74
2021/06/27 12:55:14;;;;;;;13.87;9.60;;;;;;;;;;5072222;28;20612;-73
2021/06/27 12:57:40;;;;;;;16.03;8.87;;;;;;;;;;5072195;28;20398;-73
2021/06/27 13:00:06;;;;;;;9.33;8.03;;;;;;;;;;5072026;28;20913;-74
2021/06/27 13:02:33;;;;;;;10.50;7.70;;;;;;;;;;5071914;28;20690;-75
2021/06/27 13:05:12;;;;;;;14.53;9.57;;;;;;;;;;5071700;28;20387;-73
2021/06/27 13:07:39;;;;;;;12.80;8.90;;;;;;;;;;5071842;28;20403;-75
2021/06/27 13:10:07;;;;;;;15.30;9.10;;;;;;;;;;5071504;28;20947;-74
2021/06/27 13:12:35;;;;;;;10.00;7.57;;;;;;;;;;5071899;28;20404;-74
2021/06/27 13:15:14;;;;;;;15.23;8.43;;;;;;;;;;5071203;28;20497;-75
2021/06/27 13:17:43;;;;;;;10.70;8.60;;;;;;;;;;5071870;28;20421;-74
2021/06/27 13:20:13;;;;;;;13.63;9.00;;;;;;;;;;5071329;28;20442;-73
2021/06/27 13:22:54;;;;;;;11.93;7.87;;;;;;;;;;5071580;28;20403;-75
2021/06/27 13:25:29;;;;;;;12.23;8.57;;;;;;;;;;5071642;28;20447;-75
2021/06/27 13:27:54;;;;;;;11.13;8.60;;;;;;;;;;5071105;28;20447;-74
2021/06/27 13:30:19;;;;;;;14.27;7.37;;;;;;;;;;5070798;28;20418;-74
2021/06/27 13:32:45;;;;;;;11.50;8.60;;;;;;;;;;5071142;28;20163;-73
2021/06/27 13:35:29;;;;;;;9.83;8.43;;;;;;;;;;5070794;28;20180;-74
2021/06/27 13:37:54;;;;;;;11.57;7.13;;;;;;;;;;5070983;28;20554;-74
2021/06/27 13:40:20;;;;;;;12.03;8.33;;;;;;;;;;5070795;28;20923;-73
2021/06/27 13:42:46;;;;;;;12.37;8.23;;;;;;;;;;5071093;28;20168;-72
2021/06/27 13:45:12;;;;;;;15.37;8.50;;;;;;;;;;5071519;28;20159;-75
2021/06/27 13:47:37;;;;;;;10.77;8.17;;;;;;;;;;5071076;28;20418;-74
2021/06/27 13:50:03;;;;;;;11.90;8.50;;;;;;;;;;5070845;28;20195;-74
2021/06/27 13:52:28;;;;;;;12.33;11.03;;;;;;;;;;5071092;28;20169;-73
2021/06/27 13:54:54;;;;;;;11.57;7.57;;;;;;;;;;5071010;28;20164;-74
2021/06/27 13:57:19;;;;;;;11.13;7.60;;;;;;;;;;5071224;28;20254;-74
2021/06/27 13:59:44;;;;;;;13.50;9.40;;;;;;;;;;5070739;28;20165;-72
2021/06/27 14:02:10;;;;;;;15.87;8.50;;;;;;;;;;5070934;28;20204;-74
2021/06/27 14:04:35;;;;;;;10.10;7.40;;;;;;;;;;5070422;28;20161;-73
2021/06/27 14:07:02;;;;;;;15.57;7.97;;;;;;;;;;5070851;28;20190;-73
2021/06/27 14:09:27;;;;;;;10.20;7.60;;;;;;;;;;5070979;28;20611;-74
2021/06/27 14:11:52;;;;;;;10.07;7.97;;;;;;;;;;5070926;28;20405;-73
2021/06/27 14:14:18;;;;;;;18.27;8.87;;;;;;;;;;5065851;28;20313;-75
2021/06/27 14:16:47;;;;;;;12.20;9.20;;;;;;;;;;5050776;28;20165;-73
2021/06/27 14:19:16;;;;;;;10.57;7.87;;;;;;;;;;5050826;28;20169;-72
2021/06/27 14:21:45;;;;;;;14.40;7.80;;;;;;;;;;5050649;28;20517;-73
2021/06/27 14:24:10;;;;;;;14.60;8.23;;;;;;;;;;5050487;28;20400;-73
2021/06/27 14:26:35;;;;;;;19.13;10.40;;;;;;;;;;5050814;28;20403;-74
2021/06/27 14:29:01;;;;;;;9.17;7.10;;;;;;;;;;5049995;28;20678;-73
2021/06/27 14:31:26;;;;;;;9.50;7.40;;;;;;;;;;5050535;28;20242;-75
2021/06/27 14:33:53;;;;;;;11.50;7.93;;;;;;;;;;5050406;28;20214;-72